Time;durP1;ratioP1;P1;durP2;ratioP2;P2;SDS_P1;SDS_P2;PMS_P1;PMS_P2;Temp;Humidity;BMP_temperature;BMP_pressure;BME280_temperature;BME280_humidity;BME280_pressure;Samples;Min_cycle;Max_cycle;Signal;HPM_P1;HPM_P2
2022/07/18 00:01:11;;;;;;;2.03;1.93;;;20.70;54.70;;;21.13;43.31;95661.47;5047136;28;20471;-63
2022/07/18 00:03:39;;;;;;;1.73;1.63;;;20.60;54.50;;;21.09;43.17;95658.34;5048727;28;20456;-57
2022/07/18 00:06:06;;;;;;;1.63;1.53;;;20.60;54.50;;;21.07;42.97;95662.25;5047243;28;20534;-62
2022/07/18 00:08:33;;;;;;;1.90;1.80;;;20.60;54.50;;;21.03;43.05;95656.41;5047024;28;20537;-63
2022/07/18 00:11:00;;;;;;;3.37;1.70;;;20.50;54.30;;;21.00;42.93;95659.47;5051353;28;20475;-63
2022/07/18 00:13:27;;;;;;;1.50;1.37;;;20.50;54.10;;;20.98;42.70;95664.19;5050255;28;20512;-58
2022/07/18 00:15:56;;;;;;;6.50;1.60;;;20.50;54.10;;;20.94;42.51;95661.06;5047908;28;20564;-56
2022/07/18 00:18:23;;;;;;;3.10;1.40;;;20.50;54.00;;;20.91;42.26;95660.56;5047319;28;20823;-58
2022/07/18 00:20:50;;;;;;;1.80;1.70;;;20.40;53.80;;;20.87;42.33;95660.13;5044203;28;20472;-57
2022/07/18 00:23:18;;;;;;;5.57;1.67;;;20.40;53.80;;;20.84;42.41;95657.00;5051448;28;20557;-58
2022/07/18 00:25:45;;;;;;;1.80;1.57;;;20.40;53.70;;;20.80;42.50;95653.03;5048255;28;20479;-57
2022/07/18 00:28:12;;;;;;;2.40;1.47;;;20.30;53.80;;;20.79;42.52;95662.91;5047558;28;20464;-63
2022/07/18 00:30:39;;;;;;;2.07;1.87;;;20.30;53.80;;;20.75;42.40;95662.41;5046951;28;20537;-58
2022/07/18 00:33:08;;;;;;;1.60;1.40;;;20.30;53.80;;;20.73;42.34;95652.94;5048485;28;20973;-63
2022/07/18 00:35:35;;;;;;;4.97;1.77;;;20.20;53.60;;;20.70;42.21;95656.78;5048483;28;20498;-64
2022/07/18 00:38:02;;;;;;;2.37;2.17;;;20.20;53.50;;;20.67;42.36;95649.16;5047869;28;20492;-58
2022/07/18 00:40:30;;;;;;;3.90;3.30;;;20.20;53.40;;;20.63;42.21;95642.47;5046584;28;20575;-64
2022/07/18 00:42:57;;;;;;;2.43;2.33;;;20.10;53.30;;;20.60;42.00;95640.16;5050051;28;20892;-57
2022/07/18 00:45:24;;;;;;;3.43;2.10;;;20.10;53.20;;;20.57;42.02;95644.03;5047472;28;21050;-57
2022/07/18 00:47:52;;;;;;;1.93;1.80;;;20.10;53.10;;;20.55;41.70;95645.22;5049246;28;20455;-58
2022/07/18 00:50:21;;;;;;;1.93;1.83;;;20.10;52.90;;;20.51;41.55;95650.13;5047923;28;20463;-57
2022/07/18 00:52:48;;;;;;;4.60;1.63;;;20.00;52.90;;;20.49;41.82;95659.31;5047274;28;21050;-63
2022/07/18 00:55:15;;;;;;;2.63;1.40;;;20.00;52.80;;;20.47;41.86;95664.03;5046179;28;20455;-64
2022/07/18 00:57:42;;;;;;;3.27;2.03;;;20.00;52.70;;;20.44;41.70;95657.19;5048185;28;20491;-58
2022/07/18 01:02:57;;;;;;;3.30;2.83;;;19.90;52.70;;;20.38;41.70;95655.25;5043969;28;20479;-63
2022/07/18 01:05:25;;;;;;;4.03;3.33;;;19.90;52.70;;;20.35;41.31;95656.44;5048485;28;20463;-64
2022/07/18 01:07:53;;;;;;;4.07;3.60;;;19.90;52.30;;;20.32;41.43;95656.78;5047666;28;20545;-58
2022/07/18 01:10:20;;;;;;;3.20;2.90;;;19.90;52.30;;;20.31;41.14;95660.50;5047563;28;20448;-64
2022/07/18 01:12:47;;;;;;;6.43;1.83;;;19.80;52.10;;;20.29;41.31;95662.50;5041915;28;20451;-63
2022/07/18 01:15:14;;;;;;;1.83;1.30;;;19.80;52.00;;;20.27;41.21;95661.84;5047694;28;20486;-63
2022/07/18 01:17:41;;;;;;;6.70;1.40;;;19.80;52.00;;;20.25;41.06;95655.88;5046478;28;20490;-59
2022/07/18 01:20:11;;;;;;;3.97;1.53;;;19.80;51.70;;;20.23;40.85;95657.88;5045822;28;20460;-62
2022/07/18 01:22:41;;;;;;;4.10;1.23;;;19.70;51.80;;;20.20;40.95;95650.22;5046487;28;20456;-57
2022/07/18 01:25:09;;;;;;;7.13;1.70;;;19.70;51.80;;;20.18;40.98;95649.59;5050079;28;20535;-58
2022/07/18 01:27:36;;;;;;;1.27;1.03;;;19.70;51.80;;;20.16;41.12;95651.63;5045381;28;20968;-63
2022/07/18 01:30:04;;;;;;;2.50;1.47;;;19.70;51.80;;;20.12;40.71;95656.47;5046564;28;20525;-62
2022/07/18 01:32:32;;;;;;;1.80;1.70;;;19.70;51.60;;;20.11;40.51;95659.31;5045929;28;20506;-56
2022/07/18 01:34:59;;;;;;;4.70;1.90;;;19.60;51.50;;;20.09;40.52;95656.81;5047515;28;20904;-64
2022/07/18 01:37:26;;;;;;;1.93;1.70;;;19.60;51.40;;;20.08;40.74;95649.00;5047190;28;20529;-63
2022/07/18 01:39:54;;;;;;;1.97;1.80;;;19.60;51.40;;;20.05;40.77;95643.00;5046525;28;20561;-64
2022/07/18 01:42:22;;;;;;;4.00;1.20;;;19.60;51.40;;;20.05;40.88;95640.34;5042381;28;20537;-58
2022/07/18 01:44:49;;;;;;;2.03;1.50;;;19.60;51.40;;;20.04;40.39;95646.69;5047628;28;20504;-64
2022/07/18 01:47:16;;;;;;;1.37;1.27;;;19.60;51.40;;;20.03;40.09;95641.50;5048876;28;20512;-57
2022/07/18 01:49:43;;;;;;;1.47;1.37;;;19.50;51.10;;;20.01;40.62;95635.53;5046818;28;20474;-56
2022/07/18 01:52:10;;;;;;;1.43;1.33;;;19.60;51.00;;;19.99;40.03;95637.56;5045518;28;20920;-64
2022/07/18 01:54:38;;;;;;;1.43;1.33;;;19.50;50.80;;;19.96;39.64;95633.41;5048826;28;20455;-63
2022/07/18 01:57:07;;;;;;;2.00;1.57;;;19.50;50.70;;;19.95;39.79;95639.75;5045128;28;20923;-59
2022/07/18 01:59:35;;;;;;;1.70;1.30;;;19.50;50.60;;;19.93;40.00;95640.94;5044893;28;20467;-64
2022/07/18 02:02:03;;;;;;;1.33;1.10;;;19.40;50.40;;;19.89;39.65;95643.13;5045141;28;20476;-63
2022/07/18 02:07:15;;;;;;;3.27;1.23;;;19.40;50.40;;;19.83;39.69;95636.69;5042472;28;20482;-62
2022/07/18 02:09:42;;;;;;;1.43;1.00;;;19.40;50.30;;;19.83;39.54;95636.69;5047997;28;20468;-58
2022/07/18 02:12:11;;;;;;;2.60;1.10;;;19.40;50.20;;;19.83;39.43;95638.50;5048793;28;20483;-57
2022/07/18 02:14:38;;;;;;;6.20;1.23;;;19.30;50.00;;;19.82;39.35;95645.69;5047803;28;20485;-58
2022/07/18 02:17:05;;;;;;;1.47;1.20;;;19.30;50.00;;;19.81;39.34;95648.53;5048140;28;20491;-56
2022/07/18 02:19:32;;;;;;;4.50;1.10;;;19.30;49.90;;;19.80;38.91;95649.53;5045095;28;20463;-64
2022/07/18 02:21:59;;;;;;;1.10;1.00;;;19.30;49.80;;;19.79;39.17;95655.91;5050078;28;20487;-58
2022/07/18 02:24:27;;;;;;;1.20;1.10;;;19.30;49.80;;;19.77;39.52;95642.72;5053658;28;20458;-64
2022/07/18 02:26:54;;;;;;;2.00;1.10;;;19.30;49.90;;;19.76;39.57;95646.38;5049355;28;20502;-57
2022/07/18 02:29:23;;;;;;;3.20;1.10;;;19.30;49.90;;;19.76;39.03;95648.22;5049839;28;20851;-64
2022/07/18 02:31:50;;;;;;;1.37;1.27;;;19.30;50.50;;;19.74;39.02;95653.75;5053976;28;20829;-57
2022/07/18 02:34:17;;;;;;;1.30;1.20;;;19.30;49.90;;;19.74;38.98;95659.06;5049019;28;20451;-57
2022/07/18 02:36:44;;;;;;;1.37;1.07;;;19.30;49.90;;;19.71;39.07;95649.56;5052300;28;20581;-57
2022/07/18 02:39:11;;;;;;;4.83;1.27;;;19.20;49.80;;;19.69;39.22;95656.13;5048448;28;20455;-64
2022/07/18 02:41:38;;;;;;;5.10;1.20;;;19.20;49.80;;;19.66;38.88;95662.63;5052531;28;20600;-62
2022/07/18 02:44:06;;;;;;;12.33;1.40;;;19.20;49.80;;;19.65;39.65;95670.81;5050502;28;21013;-58
2022/07/18 02:46:34;;;;;;;1.47;1.07;;;19.20;49.80;;;19.62;39.31;95665.81;5052027;28;20476;-64
2022/07/18 02:49:02;;;;;;;5.07;1.47;;;19.10;49.80;;;19.57;39.46;95668.19;5047018;28;20558;-58
2022/07/18 02:51:29;;;;;;;3.23;0.93;;;19.10;50.10;;;19.51;39.37;95667.88;5050744;28;20495;-59
2022/07/18 02:53:56;;;;;;;1.77;1.67;;;19.00;50.10;;;19.47;39.65;95663.91;5046935;28;20451;-63
2022/07/18 02:56:23;;;;;;;2.07;1.33;;;19.10;50.30;;;19.43;39.45;95670.59;5049933;28;20482;-56
2022/07/18 02:58:50;;;;;;;1.53;1.10;;;19.00;50.40;;;19.38;39.50;95672.97;5049317;28;20552;-64
2022/07/18 03:01:18;;;;;;;2.90;1.20;;;18.90;50.30;;;19.33;39.56;95677.97;5056793;28;20471;-57
2022/07/18 03:03:46;;;;;;;2.00;1.60;;;18.90;50.30;;;19.29;40.13;95677.50;5048260;28;20464;-58
2022/07/18 03:06:13;;;;;;;1.43;1.20;;;18.80;50.30;;;19.25;39.99;95683.38;5052966;28;20528;-63
2022/07/18 03:08:41;;;;;;;1.80;1.57;;;18.80;50.60;;;19.20;40.09;95689.22;5048567;28;20486;-63
2022/07/18 03:11:08;;;;;;;2.50;1.80;;;18.80;50.80;;;19.15;40.03;95686.25;5049568;28;20535;-63
2022/07/18 03:13:35;;;;;;;1.30;1.20;;;18.70;50.80;;;19.11;40.14;95688.41;5046046;28;20459;-63
2022/07/18 03:16:02;;;;;;;2.37;2.20;;;18.70;50.90;;;19.07;40.20;95697.78;5047524;28;21069;-58
2022/07/18 03:18:30;;;;;;;3.63;1.60;;;18.60;51.10;;;19.04;40.21;95695.44;5044420;28;20926;-64
2022/07/18 03:20:58;;;;;;;2.23;1.43;;;18.60;51.80;;;19.01;40.86;95690.47;5041182;28;20486;-63
2022/07/18 03:23:25;;;;;;;4.97;1.50;;;18.60;51.30;;;18.98;40.99;95686.28;5044611;28;20525;-57
2022/07/18 03:25:53;;;;;;;7.03;1.83;;;18.60;51.60;;;18.94;41.12;95687.63;5047338;28;20475;-65
2022/07/18 03:28:20;;;;;;;1.60;1.50;;;18.50;51.50;;;18.92;40.64;95684.31;5044815;28;20507;-57
2022/07/18 03:30:47;;;;;;;5.70;1.17;;;18.50;51.30;;;18.93;40.77;95687.81;5047859;28;20914;-63
2022/07/18 03:33:14;;;;;;;1.47;1.37;;;18.50;51.00;;;18.94;40.13;95690.28;5048594;28;20529;-58
2022/07/18 03:35:41;;;;;;;1.70;1.53;;;18.50;50.80;;;18.95;40.56;95686.63;5048082;28;20529;-57
2022/07/18 03:38:10;;;;;;;3.20;1.50;;;18.50;50.70;;;18.99;39.88;95682.63;5047907;28;20556;-57
2022/07/18 03:40:37;;;;;;;2.17;1.30;;;18.50;50.60;;;19.03;40.27;95682.28;5047991;28;20478;-64
2022/07/18 03:43:05;;;;;;;3.00;1.20;;;18.60;50.70;;;19.07;40.32;95688.94;5048538;28;20464;-59
2022/07/18 03:45:32;;;;;;;4.77;1.37;;;18.60;50.60;;;19.09;40.15;95693.09;5048284;28;20905;-57
2022/07/18 03:47:59;;;;;;;2.23;1.23;;;18.60;50.40;;;19.11;40.12;95699.06;5048239;28;20448;-64
2022/07/18 03:50:27;;;;;;;5.10;1.47;;;18.60;50.40;;;19.13;40.00;95690.91;5047614;28;20460;-63
2022/07/18 03:52:54;;;;;;;2.40;1.23;;;18.70;50.80;;;19.14;39.98;95689.91;5050585;28;20462;-63
2022/07/18 03:55:23;;;;;;;1.90;1.50;;;18.70;51.00;;;19.15;40.11;95683.56;5047417;28;20483;-62
2022/07/18 03:57:50;;;;;;;4.07;1.20;;;18.70;50.80;;;19.16;40.61;95682.56;5047213;28;20541;-63
2022/07/18 04:00:17;;;;;;;6.70;1.57;;;18.70;51.00;;;19.19;40.44;95687.53;5046234;28;20448;-62
2022/07/18 04:02:46;;;;;;;6.20;1.40;;;18.70;50.80;;;19.24;39.97;95687.88;5048351;28;20533;-64
2022/07/18 04:05:13;;;;;;;3.57;1.40;;;18.80;51.20;;;19.29;40.53;95693.50;5047158;28;20456;-63
2022/07/18 04:07:41;;;;;;;23.40;1.93;;;18.80;51.30;;;19.32;40.40;95692.34;5043950;28;20860;-64
2022/07/18 04:10:09;;;;;;;7.63;1.50;;;18.90;51.50;;;19.33;40.34;95700.16;5047090;28;20529;-58
2022/07/18 04:12:45;;;;;;;1.30;1.03;;;18.90;51.50;;;19.35;40.40;95695.47;5046621;28;20536;-63
2022/07/18 04:15:12;;;;;;;1.37;1.27;;;18.90;51.50;;;19.38;40.56;95704.13;5048906;28;20447;-57
2022/07/18 04:17:39;;;;;;;1.53;1.20;;;18.90;51.80;;;19.42;41.42;95708.13;5046852;28;20491;-63
2022/07/18 04:20:09;;;;;;;6.10;1.43;;;18.90;52.20;;;19.46;41.75;95709.44;5045160;28;20870;-57
2022/07/18 04:22:46;;;;;;;13.97;1.50;;;19.00;52.70;;;19.51;41.12;95697.22;5046668;28;20451;-65
2022/07/18 04:25:14;;;;;;;3.87;1.63;;;19.00;51.80;;;19.55;41.14;95692.41;5049600;28;20816;-64
2022/07/18 04:27:42;;;;;;;2.80;1.90;;;19.10;51.70;;;19.55;41.07;95692.41;5046337;28;20828;-57
2022/07/18 04:30:10;;;;;;;6.60;1.70;;;19.10;51.60;;;19.56;40.91;95693.22;5047081;28;20841;-63
2022/07/18 04:32:37;;;;;;;3.73;1.93;;;19.10;51.70;;;19.52;40.43;95693.56;5046122;28;20447;-59
2022/07/18 04:35:06;;;;;;;3.17;1.10;;;19.10;51.50;;;19.50;41.16;95690.25;5046959;28;20464;-65
2022/07/18 04:37:33;;;;;;;4.77;1.53;;;19.10;51.70;;;19.49;41.11;95683.25;5046231;28;20531;-65
2022/07/18 04:40:01;;;;;;;5.87;1.30;;;19.00;51.90;;;19.49;41.45;95679.75;5046102;28;21044;-64
2022/07/18 04:42:30;;;;;;;1.50;1.00;;;19.00;52.00;;;19.51;41.35;95683.06;5046831;28;20987;-64
2022/07/18 04:44:58;;;;;;;1.93;1.50;;;19.10;52.00;;;19.51;40.83;95680.41;5046722;28;20513;-58
2022/07/18 04:47:26;;;;;;;6.33;1.50;;;19.10;51.70;;;19.51;41.21;95680.41;5046612;28;20522;-58
2022/07/18 04:49:53;;;;;;;5.43;1.40;;;19.10;52.20;;;19.52;41.23;95677.56;5045283;28;20525;-57
2022/07/18 04:52:20;;;;;;;5.07;1.53;;;19.10;52.00;;;19.53;40.76;95673.88;5047404;28;21004;-63
2022/07/18 04:54:47;;;;;;;3.10;1.53;;;19.10;51.80;;;19.57;41.03;95676.22;5046280;28;20440;-64
2022/07/18 04:57:15;;;;;;;7.80;1.93;;;19.10;51.70;;;19.60;40.70;95676.69;5046204;28;20534;-64
2022/07/18 04:59:42;;;;;;;2.80;1.70;;;19.10;51.50;;;19.63;41.01;95676.31;5045735;28;20567;-57
2022/07/18 05:02:11;;;;;;;2.13;2.00;;;19.20;51.60;;;19.67;41.12;95679.47;5044856;28;20558;-59
2022/07/18 05:04:38;;;;;;;1.97;1.77;;;19.20;51.60;;;19.69;41.05;95680.97;5045707;28;20498;-63
2022/07/18 05:07:06;;;;;;;2.33;1.10;;;19.20;51.70;;;19.76;40.55;95688.25;5045176;28;20931;-64
2022/07/18 05:09:33;;;;;;;2.37;1.30;;;19.30;51.60;;;19.83;41.11;95689.22;5042230;28;20763;-64
2022/07/18 05:12:00;;;;;;;32.80;2.60;;;19.30;51.90;;;19.91;40.92;95685.66;5045473;28;20525;-63
2022/07/18 05:14:27;;;;;;;7.03;1.47;;;19.40;51.80;;;19.96;40.57;95684.13;5046588;28;20455;-56
2022/07/18 05:16:55;;;;;;;4.30;1.40;;;19.50;51.70;;;20.01;40.18;95680.94;5046132;28;20848;-58
2022/07/18 05:19:23;;;;;;;1.10;0.80;;;19.50;51.10;;;20.07;39.82;95680.22;5046328;28;20483;-64
2022/07/18 05:21:50;;;;;;;2.90;1.33;;;19.60;51.00;;;20.17;40.15;95679.97;5045895;28;20471;-65
2022/07/18 05:24:18;;;;;;;3.30;1.40;;;19.70;51.10;;;20.31;39.91;95681.03;5046489;28;20448;-63
2022/07/18 05:26:46;;;;;;;12.83;1.43;;;19.80;51.10;;;20.46;39.88;95683.75;5045819;28;20476;-64
2022/07/18 05:29:13;;;;;;;7.87;1.33;;;19.90;51.10;;;20.65;39.63;95688.59;5046317;28;20447;-64
2022/07/18 05:31:41;;;;;;;2.43;1.77;;;20.10;50.80;;;20.83;39.04;95684.75;5044614;28;20464;-58
2022/07/18 05:34:08;;;;;;;7.00;1.83;;;20.20;50.10;;;21.03;39.00;95693.88;5045814;28;20501;-64
2022/07/18 05:36:37;;;;;;;3.33;2.13;;;20.40;50.20;;;21.26;38.83;95690.28;5045785;28;21030;-63
2022/07/18 05:39:04;;;;;;;4.93;1.70;;;20.60;50.40;;;21.47;38.91;95686.81;5043724;28;20491;-64
2022/07/18 05:41:32;;;;;;;3.30;1.93;;;20.80;50.20;;;21.74;38.67;95687.16;5045347;28;20620;-58
2022/07/18 05:43:59;;;;;;;4.00;1.70;;;21.10;50.00;;;22.02;37.91;95689.91;5046562;28;20513;-64
2022/07/18 05:46:26;;;;;;;6.13;1.40;;;21.30;49.30;;;22.27;37.56;95700.25;5045936;28;20467;-57
2022/07/18 05:48:54;;;;;;;4.17;1.43;;;21.60;49.30;;;22.51;37.41;95699.03;5045654;28;20518;-57
2022/07/18 05:51:21;;;;;;;6.73;1.73;;;21.80;49.10;;;22.73;37.16;95695.28;5045507;28;20472;-64
2022/07/18 05:53:51;;;;;;;5.93;1.60;;;22.00;48.70;;;22.99;37.04;95691.13;5045805;28;20513;-63
2022/07/18 05:56:18;;;;;;;4.83;1.50;;;22.30;48.80;;;23.20;36.64;95692.91;5045724;28;20525;-58
2022/07/18 05:58:45;;;;;;;6.20;1.53;;;22.50;48.10;;;23.40;36.64;95686.81;5045534;28;20565;-59
2022/07/18 06:01:16;;;;;;;4.50;2.17;;;22.70;47.80;;;23.61;36.72;95699.31;5045495;28;20479;-58
2022/07/18 06:03:44;;;;;;;3.13;1.73;;;22.90;47.90;;;23.81;35.74;95696.66;5043838;28;20821;-63
2022/07/18 06:06:11;;;;;;;1.53;1.43;;;23.10;47.60;;;23.97;35.63;95693.66;5046009;28;20472;-57
2022/07/18 06:08:38;;;;;;;2.20;2.00;;;23.20;47.40;;;24.16;36.00;95691.19;5042081;28;20447;-56
2022/07/18 06:11:08;;;;;;;6.40;1.70;;;23.40;47.30;;;24.34;35.63;95688.75;5045012;28;20525;-58
2022/07/18 06:13:36;;;;;;;7.93;2.33;;;23.60;46.50;;;24.58;35.20;95691.06;5045327;28;20452;-58
2022/07/18 06:16:04;;;;;;;4.77;1.57;;;23.80;46.60;;;24.78;35.19;95693.72;5045656;28;20478;-63
2022/07/18 06:18:31;;;;;;;1.50;1.40;;;24.00;46.20;;;25.02;34.26;95695.78;5044358;28;21019;-65
2022/07/18 06:20:59;;;;;;;4.10;1.40;;;24.20;45.90;;;25.24;33.80;95699.03;5046747;28;20975;-64
2022/07/18 06:23:26;;;;;;;2.60;1.40;;;24.50;45.30;;;25.43;34.11;95693.00;5045268;28;20501;-57
2022/07/18 06:25:53;;;;;;;6.30;1.57;;;24.60;45.00;;;25.60;33.06;95691.47;5045750;28;20471;-58
2022/07/18 06:28:22;;;;;;;1.80;1.43;;;24.80;44.70;;;25.69;32.93;95692.88;5045773;28;20451;-64
2022/07/18 06:30:49;;;;;;;4.37;1.40;;;24.90;44.00;;;25.73;32.34;95688.72;5045654;28;20894;-58
2022/07/18 06:33:16;;;;;;;3.20;1.60;;;25.00;43.70;;;25.86;32.35;95684.31;5045238;28;20451;-64
2022/07/18 06:35:43;;;;;;;1.97;1.30;;;25.00;43.50;;;25.97;32.23;95683.63;5045696;28;20999;-63
2022/07/18 06:38:11;;;;;;;2.90;1.07;;;25.20;43.10;;;26.12;31.71;95683.38;5039258;28;21064;-66
2022/07/18 06:40:38;;;;;;;1.30;1.20;;;25.30;42.30;;;26.26;31.12;95684.91;5046016;28;20535;-58
2022/07/18 06:43:06;;;;;;;1.00;0.77;;;25.40;42.30;;;26.41;30.85;95681.88;5045546;28;20895;-63
2022/07/18 06:45:34;;;;;;;1.07;0.97;;;25.60;40.90;;;26.46;30.15;95673.97;5045569;28;20568;-57
2022/07/18 06:48:02;;;;;;;1.67;1.33;;;25.70;40.50;;;26.39;29.81;95675.88;5045052;28;20541;-58
2022/07/18 06:50:29;;;;;;;6.57;1.50;;;25.70;40.10;;;26.35;30.21;95677.38;5045527;28;20491;-60
2022/07/18 06:52:56;;;;;;;7.30;1.33;;;25.60;39.80;;;26.43;29.77;95669.03;5041289;28;20455;-58
2022/07/18 06:55:23;;;;;;;8.73;1.43;;;25.70;39.90;;;26.56;29.64;95678.88;5044911;28;20455;-64
2022/07/18 06:57:51;;;;;;;3.00;1.27;;;25.80;39.60;;;26.73;29.12;95667.56;5045285;28;20956;-64
2022/07/18 07:00:18;;;;;;;7.33;1.13;;;25.90;39.70;;;26.95;28.92;95665.25;5045690;28;20864;-64
2022/07/18 07:02:49;;;;;;;1.23;1.13;;;26.10;39.20;;;27.13;29.01;95667.97;5044920;28;20455;-58
2022/07/18 07:05:17;;;;;;;3.63;1.10;;;26.30;39.30;;;27.27;28.56;95665.16;5048451;28;20465;-57
2022/07/18 07:07:44;;;;;;;4.77;1.10;;;26.50;39.20;;;27.36;28.55;95669.22;5045414;28;20952;-56
2022/07/18 07:10:12;;;;;;;9.03;1.60;;;26.60;38.10;;;27.46;27.98;95655.16;5049374;28;20459;-56
2022/07/18 07:12:40;;;;;;;5.17;1.20;;;26.60;37.70;;;27.62;28.12;95665.38;5048893;28;20459;-57
2022/07/18 07:15:09;;;;;;;2.70;1.07;;;26.80;38.10;;;27.82;27.97;95659.66;5048445;28;20534;-64
2022/07/18 07:17:36;;;;;;;3.63;1.53;;;27.00;38.30;;;27.96;27.85;95660.34;5047779;28;20443;-65
2022/07/18 07:20:06;;;;;;;3.90;1.70;;;27.10;37.60;;;28.06;28.04;95657.91;5048338;28;21017;-64
2022/07/18 07:22:33;;;;;;;3.20;1.10;;;27.20;37.90;;;28.26;27.90;95657.63;5048115;28;20546;-58
2022/07/18 07:25:00;;;;;;;2.97;1.20;;;27.40;37.70;;;28.47;27.79;95655.41;5048854;28;20708;-57
2022/07/18 07:27:28;;;;;;;2.63;1.03;;;27.60;37.70;;;28.64;27.23;95649.34;5048631;28;20463;-56
2022/07/18 07:29:55;;;;;;;5.83;1.50;;;27.80;37.00;;;28.75;27.19;95656.66;5048182;28;20451;-58
2022/07/18 07:32:22;;;;;;;4.37;1.33;;;27.90;36.30;;;28.91;27.11;95655.94;5047507;28;20784;-64
2022/07/18 07:34:50;;;;;;;3.57;1.20;;;28.00;36.40;;;29.12;26.59;95650.97;5048261;28;20588;-64
2022/07/18 07:37:18;;;;;;;6.33;1.20;;;28.20;36.50;;;29.32;26.98;95650.63;5045896;28;20518;-64
2022/07/18 07:39:46;;;;;;;1.67;1.20;;;28.50;36.20;;;29.53;26.30;95654.59;5048634;28;20552;-64
2022/07/18 07:42:13;;;;;;;20.53;3.17;;;28.70;35.80;;;29.74;25.96;95657.69;5048325;28;20919;-64
2022/07/18 07:44:40;;;;;;;7.90;1.60;;;28.90;36.00;;;29.85;25.76;95654.13;5047957;28;20447;-57
2022/07/18 07:47:07;;;;;;;2.73;1.30;;;29.00;35.80;;;29.93;25.35;95656.47;5047570;28;21010;-63
2022/07/18 07:49:36;;;;;;;2.63;1.23;;;29.10;34.40;;;30.06;25.39;95655.34;5048203;28;20893;-58
2022/07/18 07:52:04;;;;;;;1.20;1.00;;;29.20;34.30;;;30.27;24.86;95651.13;5045813;28;20479;-58
2022/07/18 07:54:32;;;;;;;5.43;1.10;;;29.40;34.30;;;30.47;25.66;95660.69;5047959;28;20447;-56
2022/07/18 07:56:59;;;;;;;3.80;0.93;;;29.60;34.40;;;30.62;25.00;95655.50;5047966;28;20463;-64
2022/07/18 07:59:27;;;;;;;1.60;1.00;;;29.80;34.40;;;30.81;25.54;95655.25;5047398;28;20564;-64
2022/07/18 08:01:54;;;;;;;2.50;1.13;;;29.90;34.70;;;31.03;25.02;95658.03;5047074;28;20248;-58
2022/07/18 08:04:22;;;;;;;2.70;1.07;;;30.10;34.90;;;31.24;25.34;95649.09;5047833;28;20971;-66
2022/07/18 08:06:49;;;;;;;3.73;1.30;;;30.30;34.30;;;31.43;24.77;95659.66;5048016;28;20695;-57
2022/07/18 08:09:16;;;;;;;4.30;1.63;;;30.60;34.40;;;31.60;25.54;95659.63;5047943;28;20200;-59
2022/07/18 08:11:44;;;;;;;2.00;1.10;;;30.70;33.90;;;31.77;24.80;95660.38;5047526;28;20294;-58
2022/07/18 08:14:12;;;;;;;2.83;1.03;;;30.90;34.00;;;31.90;24.50;95661.91;5046866;28;20201;-64
2022/07/18 08:16:39;;;;;;;1.70;1.17;;;31.00;33.70;;;32.02;24.44;95658.19;5046305;28;20294;-64
2022/07/18 08:19:07;;;;;;;1.53;1.23;;;31.20;33.30;;;32.14;24.30;95653.44;5047257;28;20698;-64
2022/07/18 08:21:34;;;;;;;4.87;0.87;;;31.30;32.90;;;32.21;23.87;95655.94;5045167;28;20792;-64
2022/07/18 08:24:01;;;;;;;2.60;1.00;;;31.40;32.30;;;32.22;23.55;95657.59;5047395;28;20197;-64
2022/07/18 08:26:28;;;;;;;1.60;1.03;;;31.50;32.20;;;32.16;23.67;95649.41;5046677;28;20282;-59
2022/07/18 08:28:57;;;;;;;4.47;1.30;;;31.40;31.70;;;32.20;23.82;95659.78;5046078;28;20564;-65
2022/07/18 08:31:25;;;;;;;1.50;1.07;;;31.40;32.60;;;32.24;23.39;95664.44;5046287;28;20228;-63
2022/07/18 08:33:52;;;;;;;2.67;1.30;;;31.50;31.40;;;32.17;23.90;95661.91;5045887;28;20199;-64
2022/07/18 08:36:20;;;;;;;2.07;1.30;;;31.40;31.80;;;32.24;23.59;95655.44;5042182;28;20315;-58
2022/07/18 08:38:47;;;;;;;3.37;1.30;;;31.40;31.60;;;32.37;23.42;95659.66;5043711;28;20702;-64
2022/07/18 08:41:16;;;;;;;1.87;1.27;;;31.50;31.50;;;32.51;23.06;95661.69;5046617;28;20225;-59
2022/07/18 08:43:44;;;;;;;1.30;1.10;;;31.60;31.10;;;32.66;22.72;95652.03;5046644;28;20204;-65
2022/07/18 08:46:12;;;;;;;2.90;1.77;;;31.80;30.60;;;32.61;22.37;95643.78;5045903;28;20529;-64
2022/07/18 08:48:40;;;;;;;2.90;1.70;;;31.80;30.60;;;32.68;22.88;95649.88;5047795;28;20208;-64
2022/07/18 08:51:08;;;;;;;1.50;1.20;;;31.90;31.20;;;32.91;22.88;95653.31;5046879;28;20671;-64
2022/07/18 08:53:37;;;;;;;2.97;1.20;;;32.00;31.10;;;33.13;22.39;95653.97;5046343;28;20216;-64
2022/07/18 08:56:05;;;;;;;2.70;1.65;;;32.20;30.80;;;33.32;22.81;95653.56;5046133;28;20252;-64
2022/07/18 08:58:32;;;;;;;1.85;1.75;;;32.50;31.00;;;33.52;23.10;95652.84;5046025;28;20258;-57
2022/07/18 09:01:00;;;;;;;1.83;1.27;;;32.60;31.30;;;33.73;23.09;95651.03;5042475;28;20682;-65
2022/07/18 09:03:29;;;;;;;2.78;1.67;;;32.90;31.00;;;33.86;22.30;95647.78;5040866;28;20278;-59
2022/07/18 09:06:07;;;;;;;2.50;1.20;;;33.00;30.60;;;33.99;22.11;95642.91;5045509;28;20213;-59
2022/07/18 09:08:35;;;;;;;2.55;1.35;;;33.20;30.50;;;34.15;22.28;95646.50;5044520;28;20566;-58
2022/07/18 09:11:03;;;;;;;3.10;1.27;;;33.30;30.50;;;34.26;22.49;95640.81;5044905;28;20215;-64
2022/07/18 09:13:37;;;;;;;2.95;2.08;;;33.50;30.50;;;34.34;22.30;95635.91;5042065;28;20276;-63
2022/07/18 09:16:06;;;;;;;9.00;1.85;;;33.60;30.50;;;34.39;22.58;95641.38;5044902;28;20666;-58
2022/07/18 09:18:37;;;;;;;4.40;1.90;;;33.60;30.60;;;34.40;21.82;95645.75;5041215;28;20193;-58
2022/07/18 09:21:06;;;;;;;3.17;1.10;;;33.60;29.80;;;34.28;21.81;95646.81;5044570;28;20228;-58
2022/07/18 09:23:34;;;;;;;7.68;1.88;;;33.60;29.90;;;34.10;22.31;95652.78;5044731;28;20239;-64
2022/07/18 09:26:02;;;;;;;3.45;1.17;;;33.40;30.10;;;34.02;22.49;95642.38;5044648;28;20213;-65
2022/07/18 09:28:30;;;;;;;4.72;1.65;;;33.30;30.60;;;33.82;22.10;95643.13;5045454;28;20621;-57
2022/07/18 09:30:59;;;;;;;3.38;2.00;;;33.10;30.00;;;33.44;22.59;95648.72;5044823;28;20224;-58
2022/07/18 09:33:26;;;;;;;5.45;1.70;;;32.80;30.10;;;33.31;22.51;95636.38;5045033;28;20254;-57
2022/07/18 09:35:55;;;;;;;6.35;1.83;;;32.60;30.60;;;33.31;23.07;95628.22;5044862;28;20685;-59
2022/07/18 09:38:24;;;;;;;8.23;1.45;;;32.50;31.80;;;33.47;23.44;95640.00;5041113;28;20687;-64
2022/07/18 09:40:53;;;;;;;2.42;1.73;;;32.60;31.50;;;33.64;23.12;95641.72;5045156;28;20247;-63
2022/07/18 09:43:23;;;;;;;4.40;2.10;;;32.80;31.20;;;33.78;22.76;95633.88;5045495;28;20209;-59
2022/07/18 09:45:51;;;;;;;1.80;1.33;;;32.90;31.20;;;33.86;23.19;95636.88;5044652;28;20225;-65
2022/07/18 09:48:20;;;;;;;6.97;2.10;;;33.00;31.30;;;33.93;22.80;95637.44;5044984;28;20262;-57
2022/07/18 09:50:52;;;;;;;4.18;2.00;;;33.10;31.10;;;33.98;22.84;95633.09;5045287;28;20377;-57
2022/07/18 09:53:23;;;;;;;6.82;2.10;;;33.10;31.00;;;34.01;22.67;95630.66;5044847;28;20211;-65
2022/07/18 09:55:52;;;;;;;4.50;1.60;;;33.20;31.10;;;34.00;22.98;95636.38;5045233;28;20347;-59
2022/07/18 09:58:21;;;;;;;2.95;1.40;;;33.20;31.50;;;33.76;23.11;95626.75;5045557;28;20591;-65
2022/07/18 10:00:48;;;;;;;10.32;1.60;;;33.10;31.00;;;33.54;23.00;95629.66;5044869;28;20236;-65
2022/07/18 10:03:16;;;;;;;5.68;2.00;;;32.90;31.20;;;33.23;23.23;95634.16;5044459;28;20255;-60
2022/07/18 10:05:44;;;;;;;6.10;1.52;;;32.60;31.40;;;32.85;23.49;95617.00;5045184;28;20255;-58
2022/07/18 10:08:14;;;;;;;1.55;1.45;;;32.30;31.60;;;32.68;23.79;95617.97;5045123;28;20201;-64
2022/07/18 10:10:45;;;;;;;1.40;1.30;;;32.00;31.70;;;32.46;23.10;95620.78;5041723;28;20709;-65
2022/07/18 10:13:12;;;;;;;6.45;1.65;;;31.80;31.00;;;32.21;23.16;95617.84;5044960;28;20383;-57
2022/07/18 10:15:41;;;;;;;10.93;1.83;;;31.60;30.80;;;32.03;23.84;95621.75;5045231;28;20681;-64
2022/07/18 10:18:10;;;;;;;2.40;1.35;;;31.40;31.90;;;31.95;24.09;95607.50;5041332;28;20196;-56
2022/07/18 10:20:39;;;;;;;2.17;1.30;;;31.30;32.20;;;31.91;23.80;95609.09;5044833;28;20713;-65
2022/07/18 10:23:17;;;;;;;2.33;1.70;;;31.20;32.00;;;31.87;23.82;95601.69;5047694;28;20201;-58
2022/07/18 10:25:54;;;;;;;3.08;1.25;;;31.20;32.00;;;31.77;23.89;95597.00;5044972;28;20228;-57
2022/07/18 10:28:21;;;;;;;6.60;1.43;;;31.00;32.60;;;31.60;24.07;95600.66;5040040;28;20193;-57